sensor_id;sensor_type;location;lat;lon;timestamp;P1;durP1;ratioP1;P2;durP2;ratioP2
11048;SDS011;5577;42.706;23.160;2022-12-18T00:01:13;5.87;;;4.77;;
11048;SDS011;5577;42.706;23.160;2022-12-18T00:04:04;6.53;;;4.70;;
11048;SDS011;5577;42.706;23.160;2022-12-18T00:06:49;7.37;;;5.10;;
11048;SDS011;5577;42.706;23.160;2022-12-18T00:09:33;6.33;;;5.00;;
11048;SDS011;5577;42.706;23.160;2022-12-18T00:12:17;7.07;;;5.70;;
11048;SDS011;5577;42.706;23.160;2022-12-18T00:15:01;5.90;;;5.20;;
11048;SDS011;5577;42.706;23.160;2022-12-18T00:17:44;6.23;;;5.27;;
11048;SDS011;5577;42.706;23.160;2022-12-18T00:20:28;6.53;;;5.47;;
11048;SDS011;5577;42.706;23.160;2022-12-18T00:23:13;7.27;;;5.57;;
11048;SDS011;5577;42.706;23.160;2022-12-18T00:26:04;7.03;;;5.67;;
11048;SDS011;5577;42.706;23.160;2022-12-18T00:28:51;6.53;;;5.70;;
11048;SDS011;5577;42.706;23.160;2022-12-18T00:31:36;6.77;;;5.73;;
11048;SDS011;5577;42.706;23.160;2022-12-18T00:34:21;6.23;;;5.43;;
11048;SDS011;5577;42.706;23.160;2022-12-18T00:37:05;6.50;;;5.53;;
11048;SDS011;5577;42.706;23.160;2022-12-18T00:39:49;6.70;;;5.60;;
11048;SDS011;5577;42.706;23.160;2022-12-18T00:42:33;7.60;;;6.07;;
11048;SDS011;5577;42.706;23.160;2022-12-18T00:45:37;7.20;;;6.03;;
11048;SDS011;5577;42.706;23.160;2022-12-18T00:48:21;7.47;;;6.10;;
11048;SDS011;5577;42.706;23.160;2022-12-18T00:51:05;6.53;;;5.70;;
11048;SDS011;5577;42.706;23.160;2022-12-18T00:53:50;6.20;;;5.60;;
11048;SDS011;5577;42.706;23.160;2022-12-18T00:56:35;6.40;;;5.60;;
11048;SDS011;5577;42.706;23.160;2022-12-18T00:59:20;7.23;;;5.77;;
11048;SDS011;5577;42.706;23.160;2022-12-18T01:02:04;7.50;;;6.23;;
11048;SDS011;5577;42.706;23.160;2022-12-18T01:04:48;6.87;;;6.17;;
11048;SDS011;5577;42.706;23.160;2022-12-18T01:07:32;7.70;;;5.77;;
11048;SDS011;5577;42.706;23.160;2022-12-18T01:10:16;8.57;;;5.63;;
11048;SDS011;5577;42.706;23.160;2022-12-18T01:13:00;6.90;;;5.73;;
11048;SDS011;5577;42.706;23.160;2022-12-18T01:15:48;7.27;;;5.23;;
11048;SDS011;5577;42.706;23.160;2022-12-18T01:18:33;5.70;;;5.00;;
11048;SDS011;5577;42.706;23.160;2022-12-18T01:21:17;6.80;;;5.77;;
11048;SDS011;5577;42.706;23.160;2022-12-18T01:24:00;8.20;;;6.00;;
11048;SDS011;5577;42.706;23.160;2022-12-18T01:26:44;6.90;;;5.97;;
11048;SDS011;5577;42.706;23.160;2022-12-18T01:29:28;6.57;;;5.83;;
11048;SDS011;5577;42.706;23.160;2022-12-18T01:32:12;6.77;;;5.73;;
11048;SDS011;5577;42.706;23.160;2022-12-18T01:34:56;8.93;;;6.83;;
11048;SDS011;5577;42.706;23.160;2022-12-18T01:37:41;8.17;;;6.00;;
11048;SDS011;5577;42.706;23.160;2022-12-18T01:40:25;7.77;;;6.57;;
11048;SDS011;5577;42.706;23.160;2022-12-18T01:43:09;7.87;;;6.03;;
11048;SDS011;5577;42.706;23.160;2022-12-18T01:45:53;8.40;;;6.43;;
11048;SDS011;5577;42.706;23.160;2022-12-18T01:48:37;8.90;;;6.10;;
11048;SDS011;5577;42.706;23.160;2022-12-18T01:51:23;7.67;;;5.83;;
11048;SDS011;5577;42.706;23.160;2022-12-18T01:54:07;7.47;;;6.27;;
11048;SDS011;5577;42.706;23.160;2022-12-18T01:56:52;7.47;;;6.10;;
11048;SDS011;5577;42.706;23.160;2022-12-18T01:59:36;6.67;;;5.63;;
11048;SDS011;5577;42.706;23.160;2022-12-18T02:02:20;7.13;;;5.60;;
11048;SDS011;5577;42.706;23.160;2022-12-18T02:05:04;7.00;;;5.73;;
11048;SDS011;5577;42.706;23.160;2022-12-18T02:13:40;6.80;;;5.67;;
11048;SDS011;5577;42.706;23.160;2022-12-18T02:16:44;8.03;;;5.73;;
11048;SDS011;5577;42.706;23.160;2022-12-18T02:22:53;8.57;;;6.40;;
11048;SDS011;5577;42.706;23.160;2022-12-18T02:26:44;7.33;;;6.17;;
11048;SDS011;5577;42.706;23.160;2022-12-18T02:29:13;6.77;;;5.60;;
11048;SDS011;5577;42.706;23.160;2022-12-18T02:32:02;6.83;;;5.77;;
11048;SDS011;5577;42.706;23.160;2022-12-18T02:34:50;6.70;;;5.73;;
11048;SDS011;5577;42.706;23.160;2022-12-18T02:37:37;7.53;;;5.50;;
11048;SDS011;5577;42.706;23.160;2022-12-18T02:40:26;7.23;;;4.93;;
11048;SDS011;5577;42.706;23.160;2022-12-18T02:43:12;6.53;;;5.77;;
11048;SDS011;5577;42.706;23.160;2022-12-18T02:45:59;7.90;;;5.60;;
11048;SDS011;5577;42.706;23.160;2022-12-18T02:58:50;6.40;;;5.73;;
11048;SDS011;5577;42.706;23.160;2022-12-18T03:01:43;5.87;;;5.10;;
11048;SDS011;5577;42.706;23.160;2022-12-18T03:04:50;7.00;;;5.63;;
11048;SDS011;5577;42.706;23.160;2022-12-18T03:07:56;6.87;;;5.47;;
11048;SDS011;5577;42.706;23.160;2022-12-18T03:10:42;8.23;;;6.03;;
11048;SDS011;5577;42.706;23.160;2022-12-18T03:13:34;7.67;;;5.60;;
11048;SDS011;5577;42.706;23.160;2022-12-18T03:16:23;8.43;;;6.27;;
11048;SDS011;5577;42.706;23.160;2022-12-18T03:19:11;7.27;;;6.03;;
11048;SDS011;5577;42.706;23.160;2022-12-18T03:22:01;8.30;;;6.50;;
11048;SDS011;5577;42.706;23.160;2022-12-18T03:24:48;8.10;;;6.00;;
11048;SDS011;5577;42.706;23.160;2022-12-18T03:27:32;8.17;;;6.43;;
11048;SDS011;5577;42.706;23.160;2022-12-18T03:30:19;7.80;;;6.10;;
11048;SDS011;5577;42.706;23.160;2022-12-18T03:33:07;8.07;;;5.87;;
11048;SDS011;5577;42.706;23.160;2022-12-18T03:35:55;7.07;;;5.77;;
11048;SDS011;5577;42.706;23.160;2022-12-18T03:38:39;7.17;;;5.87;;
11048;SDS011;5577;42.706;23.160;2022-12-18T03:41:36;7.97;;;5.90;;
11048;SDS011;5577;42.706;23.160;2022-12-18T03:47:33;6.80;;;5.37;;
11048;SDS011;5577;42.706;23.160;2022-12-18T03:54:02;8.10;;;5.37;;
11048;SDS011;5577;42.706;23.160;2022-12-18T03:56:48;8.63;;;6.10;;
11048;SDS011;5577;42.706;23.160;2022-12-18T03:59:40;8.30;;;6.43;;
11048;SDS011;5577;42.706;23.160;2022-12-18T04:02:26;8.00;;;6.57;;
11048;SDS011;5577;42.706;23.160;2022-12-18T04:05:12;10.40;;;6.40;;
11048;SDS011;5577;42.706;23.160;2022-12-18T04:07:57;9.40;;;6.77;;
11048;SDS011;5577;42.706;23.160;2022-12-18T04:10:41;8.40;;;6.80;;
11048;SDS011;5577;42.706;23.160;2022-12-18T04:13:29;10.23;;;7.10;;
11048;SDS011;5577;42.706;23.160;2022-12-18T04:16:18;9.30;;;6.43;;
11048;SDS011;5577;42.706;23.160;2022-12-18T04:19:03;11.13;;;7.53;;
11048;SDS011;5577;42.706;23.160;2022-12-18T04:21:47;12.27;;;7.63;;
11048;SDS011;5577;42.706;23.160;2022-12-18T04:24:31;9.70;;;7.07;;
11048;SDS011;5577;42.706;23.160;2022-12-18T04:27:15;9.87;;;6.90;;
11048;SDS011;5577;42.706;23.160;2022-12-18T04:29:59;11.80;;;7.73;;
11048;SDS011;5577;42.706;23.160;2022-12-18T04:32:43;10.27;;;7.47;;
11048;SDS011;5577;42.706;23.160;2022-12-18T04:35:27;10.00;;;7.30;;
11048;SDS011;5577;42.706;23.160;2022-12-18T04:38:11;9.67;;;6.93;;
11048;SDS011;5577;42.706;23.160;2022-12-18T04:40:55;10.07;;;6.87;;
11048;SDS011;5577;42.706;23.160;2022-12-18T04:43:39;10.00;;;7.07;;
11048;SDS011;5577;42.706;23.160;2022-12-18T04:46:23;10.27;;;7.33;;
11048;SDS011;5577;42.706;23.160;2022-12-18T04:49:07;10.97;;;7.50;;
11048;SDS011;5577;42.706;23.160;2022-12-18T04:51:51;10.20;;;7.73;;
11048;SDS011;5577;42.706;23.160;2022-12-18T04:54:36;8.43;;;6.73;;
11048;SDS011;5577;42.706;23.160;2022-12-18T04:57:20;11.27;;;8.07;;
11048;SDS011;5577;42.706;23.160;2022-12-18T05:00:04;10.07;;;7.40;;
11048;SDS011;5577;42.706;23.160;2022-12-18T05:02:49;11.83;;;8.10;;
11048;SDS011;5577;42.706;23.160;2022-12-18T05:05:36;8.93;;;6.80;;
11048;SDS011;5577;42.706;23.160;2022-12-18T05:08:20;10.53;;;7.47;;
11048;SDS011;5577;42.706;23.160;2022-12-18T05:11:06;11.37;;;8.07;;
11048;SDS011;5577;42.706;23.160;2022-12-18T05:13:55;11.63;;;8.00;;
11048;SDS011;5577;42.706;23.160;2022-12-18T05:16:39;12.70;;;8.87;;
11048;SDS011;5577;42.706;23.160;2022-12-18T05:19:23;12.60;;;9.17;;
11048;SDS011;5577;42.706;23.160;2022-12-18T05:22:07;13.57;;;9.13;;
11048;SDS011;5577;42.706;23.160;2022-12-18T05:24:51;14.90;;;9.43;;
11048;SDS011;5577;42.706;23.160;2022-12-18T05:27:35;12.83;;;8.67;;
11048;SDS011;5577;42.706;23.160;2022-12-18T05:30:19;16.30;;;8.73;;
11048;SDS011;5577;42.706;23.160;2022-12-18T05:33:03;12.90;;;8.90;;
11048;SDS011;5577;42.706;23.160;2022-12-18T05:35:51;17.23;;;9.47;;
11048;SDS011;5577;42.706;23.160;2022-12-18T05:38:37;15.27;;;9.90;;
11048;SDS011;5577;42.706;23.160;2022-12-18T05:41:22;14.83;;;9.70;;
11048;SDS011;5577;42.706;23.160;2022-12-18T05:44:06;12.87;;;9.50;;
11048;SDS011;5577;42.706;23.160;2022-12-18T05:46:49;13.93;;;9.40;;
11048;SDS011;5577;42.706;23.160;2022-12-18T05:49:33;16.37;;;10.83;;
11048;SDS011;5577;42.706;23.160;2022-12-18T05:52:17;14.20;;;9.90;;
11048;SDS011;5577;42.706;23.160;2022-12-18T05:55:01;15.53;;;9.97;;
11048;SDS011;5577;42.706;23.160;2022-12-18T05:57:45;16.93;;;10.73;;
11048;SDS011;5577;42.706;23.160;2022-12-18T06:00:29;14.73;;;10.43;;
11048;SDS011;5577;42.706;23.160;2022-12-18T06:03:14;13.90;;;9.53;;
11048;SDS011;5577;42.706;23.160;2022-12-18T06:05:58;15.37;;;10.30;;
11048;SDS011;5577;42.706;23.160;2022-12-18T06:08:42;15.23;;;10.27;;
11048;SDS011;5577;42.706;23.160;2022-12-18T06:11:26;16.67;;;10.73;;
11048;SDS011;5577;42.706;23.160;2022-12-18T06:14:10;15.53;;;10.73;;
11048;SDS011;5577;42.706;23.160;2022-12-18T06:16:54;15.17;;;9.40;;
11048;SDS011;5577;42.706;23.160;2022-12-18T06:19:38;18.10;;;11.17;;
11048;SDS011;5577;42.706;23.160;2022-12-18T06:22:22;17.40;;;11.37;;
11048;SDS011;5577;42.706;23.160;2022-12-18T06:25:07;16.10;;;10.50;;
11048;SDS011;5577;42.706;23.160;2022-12-18T06:27:51;17.70;;;11.07;;
11048;SDS011;5577;42.706;23.160;2022-12-18T06:30:35;16.57;;;10.60;;
11048;SDS011;5577;42.706;23.160;2022-12-18T06:33:19;16.93;;;11.00;;
11048;SDS011;5577;42.706;23.160;2022-12-18T06:36:07;16.77;;;11.13;;
11048;SDS011;5577;42.706;23.160;2022-12-18T06:38:55;17.93;;;10.97;;
11048;SDS011;5577;42.706;23.160;2022-12-18T06:41:40;15.60;;;11.10;;
11048;SDS011;5577;42.706;23.160;2022-12-18T06:44:24;19.57;;;11.80;;
11048;SDS011;5577;42.706;23.160;2022-12-18T06:47:08;17.97;;;11.30;;
11048;SDS011;5577;42.706;23.160;2022-12-18T06:49:52;17.03;;;11.87;;
11048;SDS011;5577;42.706;23.160;2022-12-18T06:52:36;19.07;;;12.13;;
11048;SDS011;5577;42.706;23.160;2022-12-18T06:55:20;20.77;;;12.97;;
11048;SDS011;5577;42.706;23.160;2022-12-18T06:58:05;22.67;;;14.67;;
11048;SDS011;5577;42.706;23.160;2022-12-18T07:00:50;26.27;;;16.37;;
11048;SDS011;5577;42.706;23.160;2022-12-18T07:03:34;24.27;;;14.27;;
11048;SDS011;5577;42.706;23.160;2022-12-18T07:06:19;19.60;;;12.40;;
11048;SDS011;5577;42.706;23.160;2022-12-18T07:09:04;21.10;;;13.60;;
11048;SDS011;5577;42.706;23.160;2022-12-18T07:11:48;27.67;;;17.77;;
11048;SDS011;5577;42.706;23.160;2022-12-18T07:14:32;20.33;;;13.87;;
11048;SDS011;5577;42.706;23.160;2022-12-18T07:17:16;20.90;;;13.17;;
11048;SDS011;5577;42.706;23.160;2022-12-18T07:20:00;21.67;;;13.60;;
11048;SDS011;5577;42.706;23.160;2022-12-18T07:22:44;16.17;;;11.37;;
11048;SDS011;5577;42.706;23.160;2022-12-18T07:25:28;16.23;;;11.00;;
11048;SDS011;5577;42.706;23.160;2022-12-18T07:28:12;17.57;;;10.90;;
11048;SDS011;5577;42.706;23.160;2022-12-18T07:30:56;17.17;;;12.00;;
11048;SDS011;5577;42.706;23.160;2022-12-18T07:33:40;16.53;;;11.20;;
11048;SDS011;5577;42.706;23.160;2022-12-18T07:36:24;16.97;;;11.47;;
11048;SDS011;5577;42.706;23.160;2022-12-18T07:39:10;17.40;;;11.07;;
11048;SDS011;5577;42.706;23.160;2022-12-18T07:41:54;18.03;;;11.73;;
11048;SDS011;5577;42.706;23.160;2022-12-18T07:45:01;19.33;;;13.03;;
11048;SDS011;5577;42.706;23.160;2022-12-18T07:47:45;19.50;;;12.67;;
11048;SDS011;5577;42.706;23.160;2022-12-18T07:50:29;20.47;;;13.40;;
11048;SDS011;5577;42.706;23.160;2022-12-18T07:53:14;19.40;;;13.30;;
11048;SDS011;5577;42.706;23.160;2022-12-18T07:55:59;17.70;;;12.87;;
11048;SDS011;5577;42.706;23.160;2022-12-18T07:58:45;19.97;;;12.27;;
11048;SDS011;5577;42.706;23.160;2022-12-18T08:01:29;19.93;;;14.00;;
11048;SDS011;5577;42.706;23.160;2022-12-18T08:04:13;21.13;;;14.47;;
11048;SDS011;5577;42.706;23.160;2022-12-18T08:06:57;21.00;;;13.93;;
11048;SDS011;5577;42.706;23.160;2022-12-18T08:09:40;19.93;;;13.13;;
11048;SDS011;5577;42.706;23.160;2022-12-18T08:12:24;20.93;;;13.67;;
11048;SDS011;5577;42.706;23.160;2022-12-18T08:15:08;20.53;;;13.40;;
11048;SDS011;5577;42.706;23.160;2022-12-18T08:17:55;19.73;;;12.87;;
11048;SDS011;5577;42.706;23.160;2022-12-18T08:20:40;21.47;;;14.17;;
11048;SDS011;5577;42.706;23.160;2022-12-18T08:23:24;22.83;;;13.87;;
11048;SDS011;5577;42.706;23.160;2022-12-18T08:26:08;21.67;;;13.97;;
11048;SDS011;5577;42.706;23.160;2022-12-18T08:28:54;21.47;;;13.87;;
11048;SDS011;5577;42.706;23.160;2022-12-18T08:31:38;19.57;;;13.13;;
11048;SDS011;5577;42.706;23.160;2022-12-18T08:34:23;19.30;;;12.73;;
11048;SDS011;5577;42.706;23.160;2022-12-18T08:37:06;20.17;;;13.57;;
11048;SDS011;5577;42.706;23.160;2022-12-18T08:39:50;21.80;;;14.00;;
11048;SDS011;5577;42.706;23.160;2022-12-18T08:42:34;31.67;;;15.67;;
11048;SDS011;5577;42.706;23.160;2022-12-18T08:45:37;20.97;;;13.67;;
11048;SDS011;5577;42.706;23.160;2022-12-18T08:48:21;23.60;;;14.50;;
11048;SDS011;5577;42.706;23.160;2022-12-18T08:51:05;20.77;;;14.03;;
11048;SDS011;5577;42.706;23.160;2022-12-18T08:53:49;18.53;;;13.80;;
11048;SDS011;5577;42.706;23.160;2022-12-18T08:56:33;22.43;;;13.83;;
11048;SDS011;5577;42.706;23.160;2022-12-18T08:59:18;22.57;;;13.27;;
11048;SDS011;5577;42.706;23.160;2022-12-18T09:02:02;21.33;;;13.80;;
11048;SDS011;5577;42.706;23.160;2022-12-18T09:04:47;20.27;;;12.93;;
11048;SDS011;5577;42.706;23.160;2022-12-18T09:07:31;21.33;;;12.83;;
11048;SDS011;5577;42.706;23.160;2022-12-18T09:10:15;21.10;;;13.27;;
11048;SDS011;5577;42.706;23.160;2022-12-18T09:12:59;18.50;;;12.60;;
11048;SDS011;5577;42.706;23.160;2022-12-18T09:15:48;20.50;;;13.10;;
11048;SDS011;5577;42.706;23.160;2022-12-18T09:18:32;18.57;;;11.47;;
11048;SDS011;5577;42.706;23.160;2022-12-18T09:21:17;17.97;;;12.10;;
11048;SDS011;5577;42.706;23.160;2022-12-18T09:24:03;19.37;;;12.77;;
11048;SDS011;5577;42.706;23.160;2022-12-18T09:26:48;20.23;;;12.83;;
11048;SDS011;5577;42.706;23.160;2022-12-18T09:29:32;18.77;;;12.00;;
11048;SDS011;5577;42.706;23.160;2022-12-18T09:32:16;20.07;;;12.67;;
11048;SDS011;5577;42.706;23.160;2022-12-18T09:35:00;16.43;;;11.63;;
11048;SDS011;5577;42.706;23.160;2022-12-18T09:37:45;18.80;;;12.63;;
11048;SDS011;5577;42.706;23.160;2022-12-18T09:40:31;19.33;;;12.30;;
11048;SDS011;5577;42.706;23.160;2022-12-18T09:43:36;19.07;;;12.70;;
11048;SDS011;5577;42.706;23.160;2022-12-18T09:46:29;18.53;;;12.90;;
11048;SDS011;5577;42.706;23.160;2022-12-18T09:49:17;20.40;;;12.87;;
11048;SDS011;5577;42.706;23.160;2022-12-18T09:52:05;21.53;;;14.77;;
11048;SDS011;5577;42.706;23.160;2022-12-18T09:58:12;18.40;;;11.83;;
11048;SDS011;5577;42.706;23.160;2022-12-18T10:01:00;16.27;;;11.13;;
11048;SDS011;5577;42.706;23.160;2022-12-18T10:03:44;19.53;;;12.77;;
11048;SDS011;5577;42.706;23.160;2022-12-18T10:15:19;20.80;;;12.50;;
11048;SDS011;5577;42.706;23.160;2022-12-18T10:18:14;20.33;;;13.17;;
11048;SDS011;5577;42.706;23.160;2022-12-18T10:21:16;18.70;;;12.23;;
11048;SDS011;5577;42.706;23.160;2022-12-18T10:27:12;21.03;;;12.23;;
11048;SDS011;5577;42.706;23.160;2022-12-18T10:29:59;19.63;;;12.37;;
11048;SDS011;5577;42.706;23.160;2022-12-18T10:32:47;18.53;;;11.63;;
11048;SDS011;5577;42.706;23.160;2022-12-18T10:35:31;21.60;;;12.40;;
11048;SDS011;5577;42.706;23.160;2022-12-18T10:43:50;15.93;;;10.60;;
11048;SDS011;5577;42.706;23.160;2022-12-18T10:47:04;15.27;;;9.93;;
11048;SDS011;5577;42.706;23.160;2022-12-18T10:49:54;16.23;;;10.10;;
11048;SDS011;5577;42.706;23.160;2022-12-18T10:52:39;15.10;;;9.90;;
11048;SDS011;5577;42.706;23.160;2022-12-18T10:55:23;15.70;;;9.63;;
11048;SDS011;5577;42.706;23.160;2022-12-18T11:01:18;16.87;;;9.30;;
11048;SDS011;5577;42.706;23.160;2022-12-18T11:04:07;18.13;;;10.70;;
11048;SDS011;5577;42.706;23.160;2022-12-18T11:06:56;15.60;;;10.17;;
11048;SDS011;5577;42.706;23.160;2022-12-18T11:09:41;16.17;;;10.60;;
11048;SDS011;5577;42.706;23.160;2022-12-18T11:12:25;19.00;;;11.40;;
11048;SDS011;5577;42.706;23.160;2022-12-18T11:15:19;18.67;;;11.53;;
11048;SDS011;5577;42.706;23.160;2022-12-18T11:18:14;18.03;;;11.17;;
11048;SDS011;5577;42.706;23.160;2022-12-18T11:21:10;17.57;;;11.20;;
11048;SDS011;5577;42.706;23.160;2022-12-18T11:23:56;16.43;;;10.10;;
11048;SDS011;5577;42.706;23.160;2022-12-18T11:26:40;17.77;;;11.30;;
11048;SDS011;5577;42.706;23.160;2022-12-18T11:29:31;16.83;;;11.07;;
11048;SDS011;5577;42.706;23.160;2022-12-18T11:35:18;16.63;;;9.67;;
11048;SDS011;5577;42.706;23.160;2022-12-18T11:47:49;16.27;;;9.77;;
11048;SDS011;5577;42.706;23.160;2022-12-18T11:50:46;17.60;;;10.20;;
11048;SDS011;5577;42.706;23.160;2022-12-18T11:53:31;16.70;;;10.47;;
11048;SDS011;5577;42.706;23.160;2022-12-18T12:02:20;14.97;;;10.30;;
11048;SDS011;5577;42.706;23.160;2022-12-18T12:08:15;17.03;;;10.83;;
11048;SDS011;5577;42.706;23.160;2022-12-18T12:14:34;20.60;;;12.20;;
11048;SDS011;5577;42.706;23.160;2022-12-18T12:26:43;17.10;;;10.87;;
11048;SDS011;5577;42.706;23.160;2022-12-18T12:35:51;18.33;;;12.13;;
11048;SDS011;5577;42.706;23.160;2022-12-18T12:38:49;17.30;;;11.67;;
11048;SDS011;5577;42.706;23.160;2022-12-18T12:41:37;18.37;;;11.60;;
11048;SDS011;5577;42.706;23.160;2022-12-18T12:44:44;19.07;;;11.70;;
11048;SDS011;5577;42.706;23.160;2022-12-18T12:47:35;17.43;;;11.97;;
11048;SDS011;5577;42.706;23.160;2022-12-18T12:50:24;15.57;;;10.67;;
11048;SDS011;5577;42.706;23.160;2022-12-18T12:53:09;18.83;;;11.77;;
11048;SDS011;5577;42.706;23.160;2022-12-18T12:56:06;18.47;;;11.17;;
11048;SDS011;5577;42.706;23.160;2022-12-18T13:07:46;19.93;;;12.27;;
11048;SDS011;5577;42.706;23.160;2022-12-18T13:10:38;17.07;;;11.30;;
11048;SDS011;5577;42.706;23.160;2022-12-18T13:13:24;18.27;;;12.00;;
11048;SDS011;5577;42.706;23.160;2022-12-18T13:16:08;20.03;;;12.30;;
11048;SDS011;5577;42.706;23.160;2022-12-18T13:18:54;18.93;;;11.53;;
11048;SDS011;5577;42.706;23.160;2022-12-18T13:21:43;18.57;;;11.40;;
11048;SDS011;5577;42.706;23.160;2022-12-18T13:24:36;17.33;;;11.80;;
11048;SDS011;5577;42.706;23.160;2022-12-18T13:36:02;19.07;;;11.60;;
11048;SDS011;5577;42.706;23.160;2022-12-18T13:38:46;18.30;;;11.63;;
11048;SDS011;5577;42.706;23.160;2022-12-18T13:41:30;20.43;;;13.00;;
11048;SDS011;5577;42.706;23.160;2022-12-18T13:44:25;17.43;;;12.07;;
11048;SDS011;5577;42.706;23.160;2022-12-18T13:47:36;16.33;;;11.67;;
11048;SDS011;5577;42.706;23.160;2022-12-18T13:50:24;16.37;;;10.23;;
11048;SDS011;5577;42.706;23.160;2022-12-18T13:53:19;16.13;;;10.60;;
11048;SDS011;5577;42.706;23.160;2022-12-18T13:56:06;17.40;;;10.97;;
11048;SDS011;5577;42.706;23.160;2022-12-18T14:01:58;18.03;;;11.13;;
11048;SDS011;5577;42.706;23.160;2022-12-18T14:04:47;19.00;;;11.17;;
11048;SDS011;5577;42.706;23.160;2022-12-18T14:07:32;19.77;;;11.80;;
11048;SDS011;5577;42.706;23.160;2022-12-18T14:10:16;17.13;;;11.27;;
11048;SDS011;5577;42.706;23.160;2022-12-18T14:13:05;19.53;;;12.13;;
11048;SDS011;5577;42.706;23.160;2022-12-18T14:15:52;23.27;;;14.07;;
11048;SDS011;5577;42.706;23.160;2022-12-18T14:21:38;18.27;;;11.43;;
11048;SDS011;5577;42.706;23.160;2022-12-18T14:24:22;15.10;;;9.87;;
11048;SDS011;5577;42.706;23.160;2022-12-18T14:27:20;15.07;;;10.17;;
11048;SDS011;5577;42.706;23.160;2022-12-18T14:35:53;18.57;;;12.20;;
11048;SDS011;5577;42.706;23.160;2022-12-18T14:38:47;18.93;;;12.63;;
11048;SDS011;5577;42.706;23.160;2022-12-18T14:41:36;19.47;;;11.57;;
11048;SDS011;5577;42.706;23.160;2022-12-18T14:44:20;16.60;;;11.50;;
11048;SDS011;5577;42.706;23.160;2022-12-18T14:47:12;19.27;;;12.30;;
11048;SDS011;5577;42.706;23.160;2022-12-18T14:49:58;19.53;;;11.90;;
11048;SDS011;5577;42.706;23.160;2022-12-18T14:52:43;18.77;;;12.00;;
11048;SDS011;5577;42.706;23.160;2022-12-18T14:55:27;20.17;;;13.03;;
11048;SDS011;5577;42.706;23.160;2022-12-18T14:58:11;19.30;;;12.07;;
11048;SDS011;5577;42.706;23.160;2022-12-18T15:00:58;21.60;;;12.63;;
11048;SDS011;5577;42.706;23.160;2022-12-18T15:03:43;19.90;;;11.17;;
11048;SDS011;5577;42.706;23.160;2022-12-18T15:06:28;19.40;;;11.50;;
11048;SDS011;5577;42.706;23.160;2022-12-18T15:09:23;17.63;;;10.40;;
11048;SDS011;5577;42.706;23.160;2022-12-18T15:12:24;17.83;;;11.57;;
11048;SDS011;5577;42.706;23.160;2022-12-18T15:18:22;18.57;;;12.17;;
11048;SDS011;5577;42.706;23.160;2022-12-18T15:21:16;22.87;;;13.90;;
11048;SDS011;5577;42.706;23.160;2022-12-18T15:24:02;19.03;;;11.53;;
11048;SDS011;5577;42.706;23.160;2022-12-18T15:26:46;18.13;;;11.03;;
11048;SDS011;5577;42.706;23.160;2022-12-18T15:29:31;14.43;;;9.10;;
11048;SDS011;5577;42.706;23.160;2022-12-18T15:32:19;17.93;;;11.00;;
11048;SDS011;5577;42.706;23.160;2022-12-18T15:35:20;17.27;;;11.40;;
11048;SDS011;5577;42.706;23.160;2022-12-18T15:38:06;16.50;;;10.63;;
11048;SDS011;5577;42.706;23.160;2022-12-18T15:40:50;16.20;;;10.63;;
11048;SDS011;5577;42.706;23.160;2022-12-18T15:43:37;15.63;;;10.20;;
11048;SDS011;5577;42.706;23.160;2022-12-18T15:46:22;19.33;;;12.20;;
11048;SDS011;5577;42.706;23.160;2022-12-18T15:49:07;22.97;;;12.63;;
11048;SDS011;5577;42.706;23.160;2022-12-18T15:51:56;17.53;;;11.30;;
11048;SDS011;5577;42.706;23.160;2022-12-18T15:54:42;21.10;;;12.53;;
11048;SDS011;5577;42.706;23.160;2022-12-18T15:57:45;21.20;;;12.50;;
11048;SDS011;5577;42.706;23.160;2022-12-18T16:00:30;21.60;;;13.03;;
11048;SDS011;5577;42.706;23.160;2022-12-18T16:03:15;20.17;;;12.63;;
11048;SDS011;5577;42.706;23.160;2022-12-18T16:05:59;20.37;;;12.50;;
11048;SDS011;5577;42.706;23.160;2022-12-18T16:08:45;21.00;;;12.50;;
11048;SDS011;5577;42.706;23.160;2022-12-18T16:11:30;18.70;;;12.17;;
11048;SDS011;5577;42.706;23.160;2022-12-18T16:14:25;20.37;;;12.50;;
11048;SDS011;5577;42.706;23.160;2022-12-18T16:17:11;19.67;;;12.67;;
11048;SDS011;5577;42.706;23.160;2022-12-18T16:19:56;21.00;;;12.50;;
11048;SDS011;5577;42.706;23.160;2022-12-18T16:22:41;22.13;;;13.93;;
11048;SDS011;5577;42.706;23.160;2022-12-18T16:25:29;20.70;;;12.37;;
11048;SDS011;5577;42.706;23.160;2022-12-18T16:28:14;19.97;;;12.67;;
11048;SDS011;5577;42.706;23.160;2022-12-18T16:30:58;21.87;;;12.40;;
11048;SDS011;5577;42.706;23.160;2022-12-18T16:33:42;19.63;;;11.83;;
11048;SDS011;5577;42.706;23.160;2022-12-18T16:36:26;19.67;;;12.23;;
11048;SDS011;5577;42.706;23.160;2022-12-18T16:39:10;20.37;;;12.03;;
11048;SDS011;5577;42.706;23.160;2022-12-18T16:41:54;19.30;;;12.00;;
11048;SDS011;5577;42.706;23.160;2022-12-18T16:44:38;19.33;;;11.70;;
11048;SDS011;5577;42.706;23.160;2022-12-18T16:47:22;19.03;;;10.97;;
11048;SDS011;5577;42.706;23.160;2022-12-18T16:50:06;16.67;;;11.03;;
11048;SDS011;5577;42.706;23.160;2022-12-18T16:52:50;17.87;;;10.83;;
11048;SDS011;5577;42.706;23.160;2022-12-18T16:55:34;17.80;;;11.33;;
11048;SDS011;5577;42.706;23.160;2022-12-18T16:58:18;18.37;;;11.70;;
11048;SDS011;5577;42.706;23.160;2022-12-18T17:01:06;16.97;;;10.80;;
11048;SDS011;5577;42.706;23.160;2022-12-18T17:03:57;19.03;;;11.30;;
11048;SDS011;5577;42.706;23.160;2022-12-18T17:06:45;20.40;;;11.27;;
11048;SDS011;5577;42.706;23.160;2022-12-18T17:09:34;19.87;;;11.30;;
11048;SDS011;5577;42.706;23.160;2022-12-18T17:12:19;19.67;;;11.13;;
11048;SDS011;5577;42.706;23.160;2022-12-18T17:15:03;20.80;;;12.70;;
11048;SDS011;5577;42.706;23.160;2022-12-18T17:17:47;19.53;;;11.83;;
11048;SDS011;5577;42.706;23.160;2022-12-18T17:20:31;18.33;;;10.70;;
11048;SDS011;5577;42.706;23.160;2022-12-18T17:23:15;19.00;;;11.30;;
11048;SDS011;5577;42.706;23.160;2022-12-18T17:25:59;17.87;;;10.87;;
11048;SDS011;5577;42.706;23.160;2022-12-18T17:28:43;21.90;;;12.30;;
11048;SDS011;5577;42.706;23.160;2022-12-18T17:31:27;19.10;;;11.73;;
11048;SDS011;5577;42.706;23.160;2022-12-18T17:34:13;21.23;;;11.90;;
11048;SDS011;5577;42.706;23.160;2022-12-18T17:36:57;20.70;;;12.07;;
11048;SDS011;5577;42.706;23.160;2022-12-18T17:39:41;20.17;;;12.13;;
11048;SDS011;5577;42.706;23.160;2022-12-18T17:42:25;19.23;;;12.50;;
11048;SDS011;5577;42.706;23.160;2022-12-18T17:45:09;22.70;;;12.07;;
11048;SDS011;5577;42.706;23.160;2022-12-18T17:47:52;22.07;;;12.93;;
11048;SDS011;5577;42.706;23.160;2022-12-18T17:50:36;18.70;;;11.00;;
11048;SDS011;5577;42.706;23.160;2022-12-18T17:53:20;19.60;;;11.87;;
11048;SDS011;5577;42.706;23.160;2022-12-18T17:56:04;18.23;;;10.90;;
11048;SDS011;5577;42.706;23.160;2022-12-18T17:58:49;18.90;;;11.53;;
11048;SDS011;5577;42.706;23.160;2022-12-18T18:01:33;19.93;;;12.67;;
11048;SDS011;5577;42.706;23.160;2022-12-18T18:04:17;19.47;;;12.57;;
11048;SDS011;5577;42.706;23.160;2022-12-18T18:07:01;20.47;;;11.93;;
11048;SDS011;5577;42.706;23.160;2022-12-18T18:09:45;20.77;;;12.80;;
11048;SDS011;5577;42.706;23.160;2022-12-18T18:12:30;18.63;;;12.20;;
11048;SDS011;5577;42.706;23.160;2022-12-18T18:15:33;18.47;;;10.63;;
11048;SDS011;5577;42.706;23.160;2022-12-18T18:18:17;20.53;;;11.50;;
11048;SDS011;5577;42.706;23.160;2022-12-18T18:21:04;21.07;;;12.73;;
11048;SDS011;5577;42.706;23.160;2022-12-18T18:23:49;19.53;;;11.60;;
11048;SDS011;5577;42.706;23.160;2022-12-18T18:26:34;17.83;;;10.97;;